CheckWX is a tool to help pilots better visualize weather data.  It is not intended as a substitute for an official pre-flight weather briefing.

09:39:21 UTC

KLPC METAR
Lompoc Airport
Lompoc, California, USA
Current

1 hour ago

KLPC 220820Z AUTO 30008KT 10SM BKN019 OVC060 12/09 A2988 RMK AO2
Observed
May-22 @ 08:20 UTC
Wind
  • 300° at 8 KTS
Visibility
10 SM
Flight Rules
MVFR
Cloud Levels
  • Broken at 1,900' AGL
  • Overcast at 6,000' AGL
Temperature
12°C / 54°F
Dewpoint
C / 48°F
Humidity
82%
Altimeter
29.88" Hg
Pressure
1011.82 hPa
Previous

2 hours ago

KLPC 220756Z AUTO 32008KT 10SM SCT019 OVC060 12/09 A2989 RMK AO2 SLP127 T01220089 401720100
Observed
May-22 @ 07:56 UTC
Wind
  • 320° at 8 KTS
Visibility
10 SM
Flight Rules
VFR
Cloud Levels
  • Scattered at 1,900' AGL
  • Overcast at 6,000' AGL
Temperature
12°C / 54°F
Dewpoint
C / 48°F
Humidity
82%
Altimeter
29.89" Hg
Pressure
1012.22 hPa
Previous

3 hours ago

KLPC 220656Z AUTO 31009G15KT 10SM OVC015 12/10 A2991 RMK AO2 SLP131 T01220100
Observed
May-22 @ 06:56 UTC
Wind
  • 310° at 9 KTS
  • Gusting to 15 KTS
Visibility
10 SM
Flight Rules
MVFR
Cloud Levels
  • Overcast at 1,500' AGL
Temperature
12°C / 54°F
Dewpoint
10°C / 50°F
Humidity
88%
Altimeter
29.91" Hg
Pressure
1012.92 hPa